createdAt,value
2018-07-21T00:00:55.227Z,7.13
2018-07-21T00:03:23.847Z,7.97
2018-07-21T00:05:52.468Z,7.80
2018-07-21T00:08:21.111Z,7.83
2018-07-21T00:10:49.785Z,7.53
2018-07-21T00:13:18.454Z,6.97
2018-07-21T00:15:47.073Z,7.67
2018-07-21T00:18:15.695Z,8.13
2018-07-21T00:20:44.293Z,8.17
2018-07-21T00:23:12.997Z,7.77
2018-07-21T00:25:41.681Z,9.03
2018-07-21T00:28:10.279Z,7.53
2018-07-21T00:30:38.880Z,7.73
2018-07-21T00:33:07.509Z,8.70
2018-07-21T00:35:36.095Z,7.23
2018-07-21T00:38:04.674Z,8.17
2018-07-21T00:40:33.243Z,8.03
2018-07-21T00:43:01.908Z,8.60
2018-07-21T00:45:30.560Z,8.90
2018-07-21T00:47:59.230Z,7.57
2018-07-21T00:50:27.717Z,8.07
2018-07-21T00:52:56.327Z,7.87
2018-07-21T00:55:24.954Z,8.13
2018-07-21T00:57:53.648Z,8.60
2018-07-21T01:00:22.266Z,8.20
2018-07-21T01:02:50.867Z,8.30
2018-07-21T01:05:19.469Z,9.43
2018-07-21T01:07:48.004Z,8.23
2018-07-21T01:10:16.501Z,9.27
2018-07-21T01:12:45.071Z,8.57
2018-07-21T01:15:13.579Z,8.80
2018-07-21T01:17:42.058Z,8.23
2018-07-21T01:20:10.656Z,8.83
2018-07-21T01:22:39.255Z,7.70
2018-07-21T01:25:07.977Z,8.23
2018-07-21T01:27:36.518Z,9.00
2018-07-21T01:30:05.824Z,8.63
2018-07-21T01:32:34.444Z,8.27
2018-07-21T01:35:03.008Z,8.90
2018-07-21T01:37:31.543Z,8.33
2018-07-21T01:40:00.074Z,8.73
2018-07-21T01:42:28.595Z,8.30
2018-07-21T01:44:57.142Z,7.70
2018-07-21T01:47:25.710Z,8.93
2018-07-21T01:49:54.258Z,7.83
2018-07-21T01:52:22.803Z,7.80
2018-07-21T01:54:51.314Z,8.40
2018-07-21T01:57:19.904Z,8.47
2018-07-21T01:59:48.545Z,7.20
2018-07-21T02:02:17.351Z,8.47
2018-07-21T02:04:45.832Z,8.40
2018-07-21T02:07:14.383Z,7.60
2018-07-21T02:09:43.134Z,7.90
2018-07-21T02:12:11.800Z,7.80
2018-07-21T02:14:40.621Z,8.27
2018-07-21T02:17:09.122Z,7.13
2018-07-21T02:19:37.840Z,7.57
2018-07-21T02:22:06.494Z,7.70
2018-07-21T02:24:35.038Z,7.03
2018-07-21T02:27:03.588Z,7.33
2018-07-21T02:29:32.140Z,7.80
2018-07-21T02:32:00.800Z,8.30
2018-07-21T02:34:29.301Z,7.53
2018-07-21T02:36:57.901Z,7.47
2018-07-21T02:39:26.486Z,8.27
2018-07-21T02:41:55.065Z,8.23
2018-07-21T02:44:23.738Z,7.70
2018-07-21T02:46:52.248Z,7.20
2018-07-21T02:49:21.081Z,7.27
2018-07-21T02:51:49.598Z,6.93
2018-07-21T02:54:18.324Z,7.60
2018-07-21T02:56:46.970Z,7.53
2018-07-21T02:59:15.636Z,7.23
2018-07-21T03:01:44.202Z,7.17
2018-07-21T03:04:12.795Z,7.50
2018-07-21T03:06:42.379Z,7.90
2018-07-21T03:09:12.328Z,7.73
2018-07-21T03:11:41.195Z,7.70
2018-07-21T03:14:09.870Z,6.97
2018-07-21T03:16:38.482Z,7.17
2018-07-21T03:19:07.137Z,7.17
2018-07-21T03:21:35.773Z,7.43
2018-07-21T03:24:04.426Z,7.83
2018-07-21T03:26:33.119Z,8.10
2018-07-21T03:29:01.755Z,7.17
2018-07-21T03:31:30.375Z,7.47
2018-07-21T03:33:59.123Z,7.50
2018-07-21T03:36:27.731Z,7.57
2018-07-21T03:38:56.347Z,7.53
2018-07-21T03:41:25.008Z,8.00
2018-07-21T03:43:53.626Z,6.83
2018-07-21T03:46:22.240Z,6.93
2018-07-21T03:48:50.796Z,7.03
2018-07-21T03:51:19.370Z,7.37
2018-07-21T03:53:47.959Z,7.47
2018-07-21T03:56:16.713Z,7.87
2018-07-21T03:58:45.293Z,8.03
2018-07-21T04:01:14.056Z,7.37
2018-07-21T04:03:42.627Z,7.80
2018-07-21T04:06:11.476Z,8.83
2018-07-21T04:08:40.181Z,8.20
2018-07-21T04:11:09.824Z,7.90
2018-07-21T04:13:38.539Z,7.57
2018-07-21T04:16:07.300Z,8.17
2018-07-21T04:18:35.884Z,8.37
2018-07-21T04:21:04.792Z,8.27
2018-07-21T04:23:33.487Z,8.00
2018-07-21T04:26:02.173Z,7.97
2018-07-21T04:28:31.716Z,8.43
2018-07-21T04:31:00.282Z,8.13
2018-07-21T04:33:28.971Z,8.17
2018-07-21T04:35:57.641Z,7.73
2018-07-21T04:38:26.291Z,9.07
2018-07-21T04:40:54.772Z,8.37
2018-07-21T04:43:23.396Z,9.13
2018-07-21T04:45:51.935Z,8.63
2018-07-21T04:48:20.491Z,9.40
2018-07-21T04:50:48.973Z,9.63
2018-07-21T04:53:17.464Z,8.60
2018-07-21T04:55:46.015Z,9.47
2018-07-21T04:58:14.921Z,8.47
2018-07-21T05:00:43.507Z,8.63
2018-07-21T05:03:12.079Z,8.63
2018-07-21T05:05:40.679Z,8.20
2018-07-21T05:08:09.236Z,10.23
2018-07-21T05:10:37.780Z,8.93
2018-07-21T05:13:06.490Z,9.17
2018-07-21T05:15:35.033Z,9.73
2018-07-21T05:18:03.587Z,12.97
2018-07-21T05:20:32.322Z,12.03
2018-07-21T05:23:00.822Z,12.70
2018-07-21T05:25:29.978Z,12.83
2018-07-21T05:27:58.594Z,14.23
2018-07-21T05:30:27.249Z,12.07
2018-07-21T05:32:55.880Z,13.23
2018-07-21T05:35:24.569Z,14.60
2018-07-21T05:37:53.508Z,14.07
2018-07-21T05:40:22.152Z,14.03
2018-07-21T05:42:50.673Z,27.27
2018-07-21T05:45:19.264Z,15.30
2018-07-21T05:47:47.794Z,14.93
2018-07-21T05:50:16.322Z,16.20
2018-07-21T05:52:44.793Z,14.47
2018-07-21T05:55:13.692Z,13.73
2018-07-21T05:57:42.183Z,14.23
2018-07-21T06:00:12.779Z,12.33
2018-07-21T06:02:41.474Z,12.83
2018-07-21T06:05:10.045Z,12.77
2018-07-21T06:07:38.604Z,12.60
2018-07-21T06:10:07.125Z,12.73
2018-07-21T06:12:35.861Z,13.90
2018-07-21T06:15:04.602Z,13.17
2018-07-21T06:17:33.133Z,14.10
2018-07-21T06:20:01.871Z,13.17
2018-07-21T06:22:30.681Z,14.07
2018-07-21T06:25:00.236Z,13.10
2018-07-21T06:27:29.370Z,14.50
2018-07-21T06:29:58.032Z,13.70
2018-07-21T06:32:26.598Z,14.07
2018-07-21T06:34:56.497Z,13.13
2018-07-21T06:37:25.094Z,13.67
2018-07-21T06:39:53.625Z,14.70
2018-07-21T06:42:22.301Z,16.67
2018-07-21T06:44:50.850Z,14.17
2018-07-21T06:47:19.329Z,14.63
2018-07-21T06:49:48.583Z,14.50
2018-07-21T06:52:17.165Z,15.93
2018-07-21T06:54:45.749Z,16.50
2018-07-21T06:57:14.582Z,15.37
2018-07-21T06:59:43.641Z,13.93
2018-07-21T07:02:12.673Z,13.53
2018-07-21T07:04:41.311Z,14.60
2018-07-21T07:07:09.839Z,15.03
2018-07-21T07:09:38.406Z,13.73
2018-07-21T07:12:06.959Z,15.10
2018-07-21T07:14:35.568Z,14.40
2018-07-21T07:17:04.149Z,16.23
2018-07-21T07:19:32.798Z,14.57
2018-07-21T07:22:01.337Z,13.93
2018-07-21T07:24:29.922Z,13.50
2018-07-21T07:26:58.511Z,14.80
2018-07-21T07:29:27.031Z,14.37
2018-07-21T07:31:55.680Z,14.13
2018-07-21T07:34:24.472Z,14.17
2018-07-21T07:36:53.133Z,14.13
2018-07-21T07:39:21.734Z,13.30
2018-07-21T07:41:50.443Z,13.73
2018-07-21T07:44:19.160Z,12.70
2018-07-21T07:46:48.226Z,14.13
2018-07-21T07:49:16.782Z,13.30
2018-07-21T07:51:45.489Z,14.73
2018-07-21T07:54:14.052Z,14.50
2018-07-21T07:56:42.618Z,14.87
2018-07-21T07:59:11.238Z,15.07
2018-07-21T08:01:40.021Z,13.87
2018-07-21T08:04:08.753Z,15.17
2018-07-21T08:06:37.547Z,14.67
2018-07-21T08:09:08.155Z,14.57
2018-07-21T08:11:36.640Z,14.70
2018-07-21T08:14:05.272Z,15.73
2018-07-21T08:16:33.827Z,14.67
2018-07-21T08:19:02.351Z,14.23
2018-07-21T08:21:30.966Z,14.35
2018-07-21T08:23:59.648Z,13.08
2018-07-21T08:26:28.167Z,12.58
2018-07-21T08:28:56.682Z,14.50
2018-07-21T08:31:25.158Z,13.68
2018-07-21T08:33:53.714Z,14.20
2018-07-21T08:36:22.189Z,15.53
2018-07-21T08:38:50.691Z,16.42
2018-07-21T08:41:19.177Z,15.00
2018-07-21T08:43:47.716Z,14.38
2018-07-21T08:46:16.329Z,13.60
2018-07-21T08:48:44.941Z,14.40
2018-07-21T08:51:13.476Z,13.10
2018-07-21T08:53:41.945Z,14.15
2018-07-21T08:56:10.586Z,13.80
2018-07-21T08:58:39.112Z,12.43
2018-07-21T09:01:07.716Z,12.47
2018-07-21T09:03:36.202Z,12.40
2018-07-21T09:06:04.823Z,12.03
2018-07-21T09:08:33.486Z,14.13
2018-07-21T09:11:02.077Z,13.55
2018-07-21T09:13:30.753Z,12.58
2018-07-21T09:15:59.387Z,16.02
2018-07-21T09:18:28.138Z,13.22
2018-07-21T09:20:56.775Z,12.37
2018-07-21T09:23:25.412Z,11.33
2018-07-21T09:25:54.471Z,10.20
2018-07-21T09:28:23.072Z,10.63
2018-07-21T09:30:51.669Z,12.43
2018-07-21T09:33:20.437Z,11.15
2018-07-21T09:35:49.501Z,9.90
2018-07-21T09:38:18.606Z,9.10
2018-07-21T09:40:47.350Z,11.57
2018-07-21T09:43:16.854Z,11.08
2018-07-21T09:45:45.905Z,14.65
2018-07-21T09:48:16.025Z,14.00
2018-07-21T09:50:45.011Z,13.20
2018-07-21T09:53:13.802Z,12.25
2018-07-21T09:55:42.847Z,14.63
2018-07-21T09:58:11.429Z,17.27
2018-07-21T10:00:45.779Z,14.23
2018-07-21T10:03:14.492Z,15.00
2018-07-21T10:05:43.127Z,13.45
2018-07-21T10:08:11.932Z,12.58
2018-07-21T10:10:40.937Z,15.40
2018-07-21T10:13:09.543Z,13.60
2018-07-21T10:15:38.180Z,13.08
2018-07-21T10:18:06.907Z,12.45
2018-07-21T10:20:35.531Z,12.28
2018-07-21T10:23:05.567Z,12.03
2018-07-21T10:25:39.774Z,13.50
2018-07-21T10:28:13.944Z,14.83
2018-07-21T10:30:43.244Z,14.07
2018-07-21T10:33:12.470Z,15.13
2018-07-21T10:35:41.959Z,12.35
2018-07-21T10:38:11.675Z,13.62
2018-07-21T10:40:41.925Z,11.97
2018-07-21T10:43:13.947Z,11.68
2018-07-21T10:45:43.431Z,12.63
2018-07-21T10:48:13.510Z,11.28
2018-07-21T10:50:43.957Z,11.65
2018-07-21T10:53:18.679Z,10.90
2018-07-21T10:55:49.403Z,12.25
2018-07-21T10:58:19.006Z,13.32
2018-07-21T11:00:49.370Z,13.20
2018-07-21T11:03:19.196Z,12.73
2018-07-21T11:05:48.991Z,12.43
2018-07-21T11:08:18.155Z,12.55
2018-07-21T11:10:47.327Z,11.63
2018-07-21T11:13:16.453Z,10.93
2018-07-21T11:15:45.750Z,10.98
2018-07-21T11:18:14.679Z,11.97
2018-07-21T11:20:43.730Z,11.00
2018-07-21T11:23:12.536Z,9.58
2018-07-21T11:25:41.823Z,8.95
2018-07-21T11:28:10.434Z,9.00
2018-07-21T11:30:39.903Z,8.25
2018-07-21T11:33:08.769Z,9.45
2018-07-21T11:35:37.540Z,8.90
2018-07-21T11:38:06.137Z,9.55
2018-07-21T11:40:34.919Z,10.18
2018-07-21T11:43:03.686Z,9.30
2018-07-21T11:45:32.362Z,10.35
2018-07-21T11:48:01.249Z,9.33
2018-07-21T11:50:29.929Z,8.93
2018-07-21T11:52:58.717Z,10.63
2018-07-21T11:55:27.423Z,9.43
2018-07-21T11:57:56.067Z,11.03
2018-07-21T12:00:24.772Z,10.75
2018-07-21T12:02:53.440Z,10.60
2018-07-21T12:05:22.103Z,12.05
2018-07-21T12:07:50.858Z,11.35
2018-07-21T12:10:19.604Z,13.93
2018-07-21T12:12:48.325Z,10.40
2018-07-21T12:15:16.973Z,16.87
2018-07-21T12:17:45.791Z,12.43
2018-07-21T12:20:14.453Z,10.35
2018-07-21T12:22:43.121Z,10.40
2018-07-21T12:25:11.835Z,10.53
2018-07-21T12:27:40.462Z,11.85
2018-07-21T12:30:09.296Z,10.90
2018-07-21T12:32:37.984Z,16.30
2018-07-21T12:35:06.751Z,10.85
2018-07-21T12:37:35.435Z,10.55
2018-07-21T12:40:04.303Z,9.68
2018-07-21T12:42:33.697Z,10.25
2018-07-21T12:45:04.088Z,10.60
2018-07-21T12:47:32.948Z,10.80
2018-07-21T12:50:01.655Z,10.28
2018-07-21T12:52:30.384Z,11.12
2018-07-21T12:54:59.019Z,11.08
2018-07-21T12:57:27.592Z,11.95
2018-07-21T12:59:56.224Z,10.90
2018-07-21T13:02:24.886Z,11.50
2018-07-21T13:04:53.915Z,10.75
2018-07-21T13:07:22.544Z,10.03
2018-07-21T13:09:51.269Z,10.35
2018-07-21T13:12:19.909Z,11.57
2018-07-21T13:14:48.643Z,11.30
2018-07-21T13:17:17.410Z,10.35
2018-07-21T13:19:46.150Z,10.23
2018-07-21T13:22:14.719Z,10.63
2018-07-21T13:24:43.585Z,10.20
2018-07-21T13:27:12.166Z,9.90
2018-07-21T13:29:40.751Z,11.28
2018-07-21T13:32:09.643Z,9.93
2018-07-21T13:34:38.183Z,10.90
2018-07-21T13:37:06.999Z,10.20
2018-07-21T13:39:35.572Z,10.53
2018-07-21T13:42:04.162Z,10.58
2018-07-21T13:44:32.899Z,9.98
2018-07-21T13:47:01.603Z,10.78
2018-07-21T13:49:30.364Z,10.03
2018-07-21T13:51:59.200Z,10.03
2018-07-21T13:54:28.016Z,10.78
2018-07-21T13:56:56.763Z,10.40
2018-07-21T13:59:25.608Z,10.05
2018-07-21T14:01:54.231Z,10.55
2018-07-21T14:04:22.875Z,11.45
2018-07-21T14:06:51.777Z,11.83
2018-07-21T14:09:20.628Z,12.57
2018-07-21T14:11:49.473Z,12.40
2018-07-21T14:14:18.271Z,14.17
2018-07-21T14:16:49.986Z,13.60
2018-07-21T14:19:18.753Z,14.37
2018-07-21T14:21:47.434Z,14.30
2018-07-21T14:24:16.251Z,14.70
2018-07-21T14:26:45.036Z,14.97
2018-07-21T14:29:13.724Z,14.70
2018-07-21T14:31:42.378Z,16.90
2018-07-21T14:34:11.024Z,16.07
2018-07-21T14:36:39.965Z,16.67
2018-07-21T14:39:10.009Z,18.20
2018-07-21T14:41:39.302Z,17.30
2018-07-21T14:44:07.946Z,15.60
2018-07-21T14:46:36.629Z,15.00
2018-07-21T14:49:05.551Z,13.90
2018-07-21T14:51:34.324Z,12.43
2018-07-21T14:54:03.116Z,12.90
2018-07-21T14:56:32.154Z,12.27
2018-07-21T14:59:00.930Z,12.40
2018-07-21T15:01:29.797Z,11.03
2018-07-21T15:03:58.635Z,11.33
2018-07-21T15:06:27.480Z,12.77
2018-07-21T15:08:56.291Z,13.27
2018-07-21T15:11:24.965Z,12.97
2018-07-21T15:13:53.614Z,12.80
2018-07-21T15:16:22.662Z,11.33
2018-07-21T15:18:52.204Z,11.17
2018-07-21T15:21:21.051Z,10.47
2018-07-21T15:23:49.687Z,10.33
2018-07-21T15:26:18.341Z,8.93
2018-07-21T15:28:46.940Z,9.30
2018-07-21T15:31:15.767Z,9.27
2018-07-21T15:33:44.409Z,8.67
2018-07-21T15:36:13.333Z,8.90
2018-07-21T15:38:42.822Z,9.00
2018-07-21T15:41:11.485Z,9.40
2018-07-21T15:43:40.275Z,9.70
2018-07-21T15:46:09.061Z,10.37
2018-07-21T15:48:37.707Z,11.80
2018-07-21T15:51:06.361Z,11.67
2018-07-21T15:53:35.397Z,9.93
2018-07-21T15:56:04.463Z,9.93
2018-07-21T15:58:33.230Z,10.33
2018-07-21T16:01:01.938Z,11.70
2018-07-21T16:03:30.700Z,9.90
2018-07-21T16:05:59.537Z,9.47
2018-07-21T16:08:28.366Z,10.07
2018-07-21T16:10:57.066Z,9.60
2018-07-21T16:13:25.710Z,9.17
2018-07-21T16:15:55.892Z,9.17
2018-07-21T16:18:32.189Z,8.80
2018-07-21T16:21:01.291Z,9.20
2018-07-21T16:23:30.457Z,8.80
2018-07-21T16:25:59.326Z,9.73
2018-07-21T16:28:28.194Z,9.50
2018-07-21T16:30:56.850Z,8.97
2018-07-21T16:33:25.646Z,8.93
2018-07-21T16:35:54.480Z,8.83
2018-07-21T16:38:23.514Z,9.80
2018-07-21T16:40:52.227Z,8.90
2018-07-21T16:43:21.010Z,8.67
2018-07-21T16:45:49.842Z,9.50
2018-07-21T16:48:18.684Z,9.03
2018-07-21T16:50:47.440Z,9.37
2018-07-21T16:53:16.138Z,9.63
2018-07-21T16:55:44.904Z,9.37
2018-07-21T16:58:13.588Z,10.23
2018-07-21T17:00:42.251Z,8.90
2018-07-21T17:03:10.891Z,8.73
2018-07-21T17:05:39.684Z,9.20
2018-07-21T17:08:08.692Z,9.77
2018-07-21T17:10:37.375Z,11.03
2018-07-21T17:13:05.982Z,11.87
2018-07-21T17:15:34.653Z,11.33
2018-07-21T17:18:03.399Z,12.30
2018-07-21T17:20:32.114Z,12.17
2018-07-21T17:23:00.911Z,10.60
2018-07-21T17:25:29.494Z,10.50
2018-07-21T17:27:58.230Z,10.97
2018-07-21T17:30:26.828Z,9.53
2018-07-21T17:32:55.490Z,9.83
2018-07-21T17:35:24.125Z,9.63
2018-07-21T17:37:52.688Z,9.73
2018-07-21T17:40:21.477Z,9.17
2018-07-21T17:42:50.223Z,9.60
2018-07-21T17:45:18.782Z,9.70
2018-07-21T17:47:47.450Z,9.47
2018-07-21T17:50:16.158Z,9.77
2018-07-21T17:52:44.867Z,9.40
2018-07-21T17:55:13.462Z,9.33
2018-07-21T17:57:42.176Z,9.13
2018-07-21T18:00:11.002Z,9.20
2018-07-21T18:02:39.597Z,9.77
2018-07-21T18:05:08.317Z,8.90
2018-07-21T18:07:37.001Z,9.67
2018-07-21T18:10:05.650Z,13.20
2018-07-21T18:12:34.502Z,9.40
2018-07-21T18:15:03.105Z,8.87
2018-07-21T18:17:31.741Z,10.37
2018-07-21T18:20:00.509Z,9.73
2018-07-21T18:22:29.250Z,9.37
2018-07-21T18:24:57.962Z,10.23
2018-07-21T18:27:26.628Z,13.13
2018-07-21T18:29:55.295Z,12.87
2018-07-21T18:32:24.055Z,10.67
2018-07-21T18:34:52.717Z,10.63
2018-07-21T18:37:21.413Z,9.17
2018-07-21T18:39:50.209Z,10.43
2018-07-21T18:42:18.851Z,9.23
2018-07-21T18:44:47.522Z,9.70
2018-07-21T18:47:17.471Z,8.40
2018-07-21T18:49:46.112Z,8.10
2018-07-21T18:52:14.788Z,8.80
2018-07-21T18:54:43.701Z,9.10
2018-07-21T18:57:12.982Z,9.57
2018-07-21T18:59:41.570Z,10.87
2018-07-21T19:02:10.275Z,9.90
2018-07-21T19:04:38.936Z,10.93
2018-07-21T19:07:07.720Z,11.50
2018-07-21T19:09:36.284Z,11.77
2018-07-21T19:12:10.048Z,11.97
2018-07-21T19:14:38.798Z,12.30
2018-07-21T19:17:07.395Z,12.23
2018-07-21T19:19:41.275Z,11.83
2018-07-21T19:22:09.921Z,11.97
2018-07-21T19:24:38.669Z,12.50
2018-07-21T19:27:12.580Z,11.37
2018-07-21T19:29:41.241Z,11.83
2018-07-21T19:32:14.986Z,12.23
2018-07-21T19:34:43.614Z,12.27
2018-07-21T19:37:17.590Z,11.57
2018-07-21T19:39:46.275Z,10.93
2018-07-21T19:42:14.973Z,11.10
2018-07-21T19:44:43.520Z,10.33
2018-07-21T19:47:12.399Z,10.67
2018-07-21T19:49:41.086Z,9.87
2018-07-21T19:52:09.826Z,10.30
2018-07-21T19:54:38.607Z,9.00
2018-07-21T19:57:07.444Z,9.30
2018-07-21T19:59:36.244Z,9.23
2018-07-21T20:02:04.976Z,9.10
2018-07-21T20:04:33.790Z,10.33
2018-07-21T20:07:02.590Z,9.80
2018-07-21T20:09:31.428Z,9.33
2018-07-21T20:12:00.107Z,9.43
2018-07-21T20:14:28.772Z,8.97
2018-07-21T20:16:57.446Z,9.23
2018-07-21T20:19:25.968Z,9.10
2018-07-21T20:21:54.558Z,8.73
2018-07-21T20:24:23.345Z,8.87
2018-07-21T20:26:52.091Z,9.53
2018-07-21T20:29:20.776Z,8.63
2018-07-21T20:31:49.555Z,8.90
2018-07-21T20:34:18.121Z,8.57
2018-07-21T20:36:46.715Z,10.10
2018-07-21T20:39:15.250Z,8.30
2018-07-21T20:41:43.883Z,8.60
2018-07-21T20:44:12.574Z,8.00
2018-07-21T20:46:41.199Z,8.47
2018-07-21T20:49:09.888Z,8.30
2018-07-21T20:51:38.577Z,9.33
2018-07-21T20:54:08.256Z,7.97
2018-07-21T20:56:47.498Z,8.57
2018-07-21T20:59:16.208Z,9.13
2018-07-21T21:01:45.751Z,9.80
2018-07-21T21:04:14.396Z,9.20
2018-07-21T21:06:43.060Z,23.07
2018-07-21T21:09:12.069Z,35.67
2018-07-21T21:11:40.778Z,43.40
2018-07-21T21:14:09.369Z,26.20
2018-07-21T21:16:38.184Z,30.57
2018-07-21T21:19:06.723Z,32.67
2018-07-21T21:21:35.255Z,31.73
2018-07-21T21:24:03.790Z,30.13
2018-07-21T21:26:32.364Z,26.73
2018-07-21T21:29:00.938Z,25.37
2018-07-21T21:31:29.532Z,30.27
2018-07-21T21:33:58.121Z,27.33
2018-07-21T21:36:26.654Z,26.97
2018-07-21T21:38:55.265Z,31.17
2018-07-21T21:41:23.849Z,31.60
2018-07-21T21:43:52.412Z,29.67
2018-07-21T21:46:20.993Z,28.10
2018-07-21T21:48:49.524Z,27.37
2018-07-21T21:51:18.056Z,26.50
2018-07-21T21:53:46.566Z,24.50
2018-07-21T21:56:15.168Z,23.70
2018-07-21T21:58:44.012Z,23.47
2018-07-21T22:01:14.332Z,19.33
2018-07-21T22:03:43.220Z,19.17
2018-07-21T22:06:11.857Z,19.50
2018-07-21T22:08:40.468Z,16.07
2018-07-21T22:11:09.043Z,16.50
2018-07-21T22:13:37.602Z,15.50
2018-07-21T22:16:06.288Z,16.50
2018-07-21T22:18:34.880Z,16.73
2018-07-21T22:21:03.523Z,17.37
2018-07-21T22:23:32.175Z,15.73
2018-07-21T22:26:00.899Z,15.67
2018-07-21T22:28:29.614Z,14.80
2018-07-21T22:30:58.284Z,15.10
2018-07-21T22:33:27.021Z,15.47
2018-07-21T22:35:55.976Z,15.30
2018-07-21T22:38:24.656Z,14.60
2018-07-21T22:40:53.253Z,13.30
2018-07-21T22:43:21.930Z,12.20
2018-07-21T22:45:50.670Z,11.70
2018-07-21T22:48:19.406Z,12.07
2018-07-21T22:50:48.093Z,12.13
2018-07-21T22:53:16.592Z,11.63
2018-07-21T22:55:45.163Z,11.83
2018-07-21T22:58:13.721Z,12.00
2018-07-21T23:00:42.335Z,11.30
2018-07-21T23:03:10.936Z,11.40
2018-07-21T23:05:39.530Z,11.63
2018-07-21T23:08:08.164Z,12.03
2018-07-21T23:10:36.727Z,11.33
2018-07-21T23:13:05.472Z,11.70
2018-07-21T23:15:34.050Z,12.00
2018-07-21T23:18:02.691Z,12.90
2018-07-21T23:20:31.369Z,11.73
2018-07-21T23:23:00.031Z,11.70
2018-07-21T23:25:28.664Z,11.30
2018-07-21T23:27:57.261Z,11.80
2018-07-21T23:30:25.816Z,13.03
2018-07-21T23:32:54.366Z,11.83
2018-07-21T23:35:23.010Z,12.60
2018-07-21T23:37:51.613Z,12.37
2018-07-21T23:40:20.188Z,12.63
2018-07-21T23:42:48.881Z,12.77
2018-07-21T23:45:17.582Z,13.07
2018-07-21T23:47:46.164Z,12.20
2018-07-21T23:50:14.996Z,12.77
2018-07-21T23:52:43.601Z,12.80
2018-07-21T23:55:12.268Z,11.83
2018-07-21T23:57:40.990Z,12.60
